Aviation Digital Data Service (ADDS)

Output produced by METARs form (0556 UTC 29 May 2017)
found at http://www.aviationweather.gov/adds/metars/
 
TAF MHLC 290425Z 2906/3006 15006KT 9999 FEW024 SCT080 TX32/2920Z TN23/2912Z 
     BECMG 2917/2719 03012KT FEW026
       
TAF MHLM 290425Z 2906/3006 21003KT 9999 SCT025 TX36/2921Z TN24/2912Z 
     BECMG 2916/2918 35007KT FEW030
       
TAF MHRO 290425Z 2906/3006 12014KT 9999 FEW020 SCT090 TX32/2918Z TN27/2912Z 
     BECMG 2918/2920 08016G26KT FEW024
       
TAF AMD MHSC 282310Z 2823/3003 VRB06KT 9999 SCT100 QNH2993INS 
     BECMG 2901/2902 VRB06KT 9999 FEW035 QNH2999INS 
     BECMG 2911/2912 VRB06KT 9999 FEW040 SCT180 QNH2999INS TX32/2823Z TN20/2908Z LAST NO AMDS AFT 2823 NEXT 3013
       
TAF MHTG 290425Z 2906/3006 VRB02KT 9999 SCT026 TX30/2921Z TN17/2912Z 
     BECMG 2914/2916 04006KT FEW028 
     BECMG 2920/2922 12005KT SCT030
       
TAF AMD MHSC 282310Z 2823/3003 VRB06KT 9999 SCT100 QNH2993INS 
     BECMG 2901/2902 VRB06KT 9999 FEW035 QNH2999INS 
     BECMG 2911/2912 VRB06KT 9999 FEW040 SCT180 QNH2999INS TX32/2823Z TN20/2908Z LAST NO AMDS AFT 2823 NEXT 3013
       
TAF MHLC 290425Z 2906/3006 15006KT 9999 FEW024 SCT080 TX32/2920Z TN23/2912Z 
     BECMG 2917/2719 03012KT FEW026
       
TAF MHLM 290425Z 2906/3006 21003KT 9999 SCT025 TX36/2921Z TN24/2912Z 
     BECMG 2916/2918 35007KT FEW030
       
TAF MHRO 290425Z 2906/3006 12014KT 9999 FEW020 SCT090 TX32/2918Z TN27/2912Z 
     BECMG 2918/2920 08016G26KT FEW024
       
TAF AMD MHSC 282310Z 2823/3003 VRB06KT 9999 SCT100 QNH2993INS 
     BECMG 2901/2902 VRB06KT 9999 FEW035 QNH2999INS 
     BECMG 2911/2912 VRB06KT 9999 FEW040 SCT180 QNH2999INS TX32/2823Z TN20/2908Z LAST NO AMDS AFT 2823 NEXT 3013
       
TAF MHTG 290425Z 2906/3006 VRB02KT 9999 SCT026 TX30/2921Z TN17/2912Z 
     BECMG 2914/2916 04006KT FEW028 
     BECMG 2920/2922 12005KT SCT030
       
TAF MHLC 290425Z 2906/3006 15006KT 9999 FEW024 SCT080 TX32/2920Z TN23/2912Z 
     BECMG 2917/2719 03012KT FEW026
       
TAF MHLM 290425Z 2906/3006 21003KT 9999 SCT025 TX36/2921Z TN24/2912Z 
     BECMG 2916/2918 35007KT FEW030
       
TAF MHRO 290425Z 2906/3006 12014KT 9999 FEW020 SCT090 TX32/2918Z TN27/2912Z 
     BECMG 2918/2920 08016G26KT FEW024
       
TAF MHTG 290425Z 2906/3006 VRB02KT 9999 SCT026 TX30/2921Z TN17/2912Z 
     BECMG 2914/2916 04006KT FEW028 
     BECMG 2920/2922 12005KT SCT030